sensor_id;sensor_type;location;lat;lon;timestamp;pressure;altitude;pressure_sealevel;temperature
80537;BMP280;69867;47.074;15.404;2023-07-22T00:01:25;97119.44;;;16.80
80537;BMP280;69867;47.074;15.404;2023-07-22T00:03:50;97123.25;;;16.74
80537;BMP280;69867;47.074;15.404;2023-07-22T00:06:15;97128.69;;;16.71
80537;BMP280;69867;47.074;15.404;2023-07-22T00:08:41;97128.16;;;16.64
80537;BMP280;69867;47.074;15.404;2023-07-22T00:11:06;97133.56;;;16.61
80537;BMP280;69867;47.074;15.404;2023-07-22T00:13:33;97149.38;;;16.60
80537;BMP280;69867;47.074;15.404;2023-07-22T00:15:58;97145.53;;;16.67
80537;BMP280;69867;47.074;15.404;2023-07-22T00:18:24;97151.97;;;16.77
80537;BMP280;69867;47.074;15.404;2023-07-22T00:20:50;97156.94;;;16.82
80537;BMP280;69867;47.074;15.404;2023-07-22T00:23:16;97152.56;;;16.82
80537;BMP280;69867;47.074;15.404;2023-07-22T00:25:42;97157.03;;;16.80
80537;BMP280;69867;47.074;15.404;2023-07-22T00:28:07;97160.84;;;16.75
80537;BMP280;69867;47.074;15.404;2023-07-22T00:30:33;97163.63;;;16.72
80537;BMP280;69867;47.074;15.404;2023-07-22T00:32:58;97167.28;;;16.69
80537;BMP280;69867;47.074;15.404;2023-07-22T00:35:23;97167.50;;;16.64
80537;BMP280;69867;47.074;15.404;2023-07-22T00:37:49;97164.19;;;16.61
80537;BMP280;69867;47.074;15.404;2023-07-22T00:40:15;97173.31;;;16.54
80537;BMP280;69867;47.074;15.404;2023-07-22T00:42:40;97174.09;;;16.56
80537;BMP280;69867;47.074;15.404;2023-07-22T00:45:06;97181.94;;;16.56
80537;BMP280;69867;47.074;15.404;2023-07-22T00:47:33;97185.81;;;16.66
80537;BMP280;69867;47.074;15.404;2023-07-22T00:50:01;97182.69;;;16.75
80537;BMP280;69867;47.074;15.404;2023-07-22T00:52:27;97168.28;;;16.82
80537;BMP280;69867;47.074;15.404;2023-07-22T00:54:52;97173.88;;;16.76
80537;BMP280;69867;47.074;15.404;2023-07-22T00:57:18;97174.72;;;16.77
80537;BMP280;69867;47.074;15.404;2023-07-22T00:59:44;97169.66;;;16.74
80537;BMP280;69867;47.074;15.404;2023-07-22T01:02:10;97181.53;;;16.63
80537;BMP280;69867;47.074;15.404;2023-07-22T01:04:35;97181.19;;;16.54
80537;BMP280;69867;47.074;15.404;2023-07-22T01:07:01;97184.13;;;16.48
80537;BMP280;69867;47.074;15.404;2023-07-22T01:09:34;97195.88;;;16.41
80537;BMP280;69867;47.074;15.404;2023-07-22T01:11:59;97199.44;;;16.40
80537;BMP280;69867;47.074;15.404;2023-07-22T01:14:25;97208.38;;;16.36
80537;BMP280;69867;47.074;15.404;2023-07-22T01:16:50;97207.78;;;16.30
80537;BMP280;69867;47.074;15.404;2023-07-22T01:19:17;97211.47;;;16.26
80537;BMP280;69867;47.074;15.404;2023-07-22T01:21:43;97211.03;;;16.18
80537;BMP280;69867;47.074;15.404;2023-07-22T01:24:09;97215.03;;;16.25
80537;BMP280;69867;47.074;15.404;2023-07-22T01:26:35;97217.28;;;16.16
80537;BMP280;69867;47.074;15.404;2023-07-22T01:29:04;97212.28;;;16.11
80537;BMP280;69867;47.074;15.404;2023-07-22T01:31:30;97208.97;;;16.08
80537;BMP280;69867;47.074;15.404;2023-07-22T01:33:55;97198.38;;;16.26
80537;BMP280;69867;47.074;15.404;2023-07-22T01:36:20;97195.59;;;16.29
80537;BMP280;69867;47.074;15.404;2023-07-22T01:38:46;97199.06;;;16.30
80537;BMP280;69867;47.074;15.404;2023-07-22T01:41:11;97192.81;;;16.32
80537;BMP280;69867;47.074;15.404;2023-07-22T01:43:36;97209.75;;;16.43
80537;BMP280;69867;47.074;15.404;2023-07-22T01:46:01;97206.91;;;16.47
80537;BMP280;69867;47.074;15.404;2023-07-22T01:48:27;97209.59;;;16.46
80537;BMP280;69867;47.074;15.404;2023-07-22T01:50:52;97219.06;;;16.48
80537;BMP280;69867;47.074;15.404;2023-07-22T01:53:17;97218.03;;;16.35
80537;BMP280;69867;47.074;15.404;2023-07-22T01:55:43;97230.84;;;16.24
80537;BMP280;69867;47.074;15.404;2023-07-22T01:58:08;97237.41;;;16.15
80537;BMP280;69867;47.074;15.404;2023-07-22T02:00:33;97234.88;;;16.14
80537;BMP280;69867;47.074;15.404;2023-07-22T02:02:59;97253.44;;;16.09
80537;BMP280;69867;47.074;15.404;2023-07-22T02:05:24;97253.69;;;16.05
80537;BMP280;69867;47.074;15.404;2023-07-22T02:07:51;97253.53;;;16.08
80537;BMP280;69867;47.074;15.404;2023-07-22T02:10:16;97258.16;;;16.20
80537;BMP280;69867;47.074;15.404;2023-07-22T02:12:41;97261.38;;;16.25
80537;BMP280;69867;47.074;15.404;2023-07-22T02:15:07;97257.91;;;16.24
80537;BMP280;69867;47.074;15.404;2023-07-22T02:17:33;97261.31;;;16.26
80537;BMP280;69867;47.074;15.404;2023-07-22T02:19:58;97266.53;;;16.26
80537;BMP280;69867;47.074;15.404;2023-07-22T02:22:23;97272.94;;;16.21
80537;BMP280;69867;47.074;15.404;2023-07-22T02:24:49;97272.09;;;16.20
80537;BMP280;69867;47.074;15.404;2023-07-22T02:27:14;97264.38;;;16.17
80537;BMP280;69867;47.074;15.404;2023-07-22T02:29:39;97264.63;;;16.13
80537;BMP280;69867;47.074;15.404;2023-07-22T02:32:05;97257.84;;;16.09
80537;BMP280;69867;47.074;15.404;2023-07-22T02:34:30;97264.78;;;16.10
80537;BMP280;69867;47.074;15.404;2023-07-22T02:36:56;97266.16;;;16.17
80537;BMP280;69867;47.074;15.404;2023-07-22T02:39:21;97267.94;;;16.16
80537;BMP280;69867;47.074;15.404;2023-07-22T02:41:48;97270.03;;;16.10
80537;BMP280;69867;47.074;15.404;2023-07-22T02:44:13;97269.47;;;16.03
80537;BMP280;69867;47.074;15.404;2023-07-22T02:46:39;97272.47;;;15.95
80537;BMP280;69867;47.074;15.404;2023-07-22T02:49:04;97280.72;;;15.88
80537;BMP280;69867;47.074;15.404;2023-07-22T02:51:29;97278.34;;;15.83
80537;BMP280;69867;47.074;15.404;2023-07-22T02:53:55;97294.28;;;15.79
80537;BMP280;69867;47.074;15.404;2023-07-22T02:56:20;97293.66;;;15.74
80537;BMP280;69867;47.074;15.404;2023-07-22T02:58:45;97297.06;;;15.76
80537;BMP280;69867;47.074;15.404;2023-07-22T03:01:11;97293.06;;;15.86
80537;BMP280;69867;47.074;15.404;2023-07-22T03:03:37;97299.84;;;15.90
80537;BMP280;69867;47.074;15.404;2023-07-22T03:06:02;97299.38;;;15.99
80537;BMP280;69867;47.074;15.404;2023-07-22T03:08:28;97306.09;;;16.05
80537;BMP280;69867;47.074;15.404;2023-07-22T03:10:53;97305.72;;;16.12
80537;BMP280;69867;47.074;15.404;2023-07-22T03:13:19;97304.16;;;16.08
80537;BMP280;69867;47.074;15.404;2023-07-22T03:15:44;97314.03;;;16.03
80537;BMP280;69867;47.074;15.404;2023-07-22T03:18:10;97311.72;;;15.97
80537;BMP280;69867;47.074;15.404;2023-07-22T03:20:36;97315.56;;;15.90
80537;BMP280;69867;47.074;15.404;2023-07-22T03:23:02;97323.34;;;15.91
80537;BMP280;69867;47.074;15.404;2023-07-22T03:25:28;97321.59;;;15.92
80537;BMP280;69867;47.074;15.404;2023-07-22T03:27:53;97325.91;;;15.93
80537;BMP280;69867;47.074;15.404;2023-07-22T03:30:21;97329.00;;;16.01
80537;BMP280;69867;47.074;15.404;2023-07-22T03:32:48;97309.88;;;15.99
80537;BMP280;69867;47.074;15.404;2023-07-22T03:35:13;97313.19;;;16.03
80537;BMP280;69867;47.074;15.404;2023-07-22T03:37:40;97313.97;;;16.05
80537;BMP280;69867;47.074;15.404;2023-07-22T03:40:06;97314.19;;;16.00
80537;BMP280;69867;47.074;15.404;2023-07-22T03:42:32;97321.28;;;15.98
80537;BMP280;69867;47.074;15.404;2023-07-22T03:44:57;97326.38;;;16.01
80537;BMP280;69867;47.074;15.404;2023-07-22T03:47:22;97320.97;;;16.04
80537;BMP280;69867;47.074;15.404;2023-07-22T03:49:48;97319.75;;;16.11
80537;BMP280;69867;47.074;15.404;2023-07-22T03:52:13;97323.84;;;16.17
80537;BMP280;69867;47.074;15.404;2023-07-22T03:54:38;97320.69;;;16.27
80537;BMP280;69867;47.074;15.404;2023-07-22T03:57:04;97317.97;;;16.29
80537;BMP280;69867;47.074;15.404;2023-07-22T03:59:29;97327.63;;;16.46
80537;BMP280;69867;47.074;15.404;2023-07-22T04:01:55;97326.22;;;16.56
80537;BMP280;69867;47.074;15.404;2023-07-22T04:04:20;97325.28;;;16.57
80537;BMP280;69867;47.074;15.404;2023-07-22T04:06:45;97327.06;;;16.56
80537;BMP280;69867;47.074;15.404;2023-07-22T04:09:11;97323.44;;;16.59
80537;BMP280;69867;47.074;15.404;2023-07-22T04:11:36;97327.75;;;16.60
80537;BMP280;69867;47.074;15.404;2023-07-22T04:14:01;97339.78;;;16.64
80537;BMP280;69867;47.074;15.404;2023-07-22T04:16:26;97336.28;;;16.65
80537;BMP280;69867;47.074;15.404;2023-07-22T04:18:52;97338.25;;;16.77
80537;BMP280;69867;47.074;15.404;2023-07-22T04:21:17;97340.56;;;16.83
80537;BMP280;69867;47.074;15.404;2023-07-22T04:23:42;97347.44;;;16.86
80537;BMP280;69867;47.074;15.404;2023-07-22T04:26:08;97344.88;;;16.84
80537;BMP280;69867;47.074;15.404;2023-07-22T04:28:34;97348.91;;;16.91
80537;BMP280;69867;47.074;15.404;2023-07-22T04:31:00;97355.22;;;17.05
80537;BMP280;69867;47.074;15.404;2023-07-22T04:33:26;97348.81;;;17.26
80537;BMP280;69867;47.074;15.404;2023-07-22T04:35:53;97357.22;;;17.48
80537;BMP280;69867;47.074;15.404;2023-07-22T04:38:19;97356.47;;;17.62
80537;BMP280;69867;47.074;15.404;2023-07-22T04:40:44;97355.81;;;17.74
80537;BMP280;69867;47.074;15.404;2023-07-22T04:43:10;97352.66;;;17.99
80537;BMP280;69867;47.074;15.404;2023-07-22T04:45:35;97360.31;;;17.88
80537;BMP280;69867;47.074;15.404;2023-07-22T04:48:01;97354.34;;;18.00
80537;BMP280;69867;47.074;15.404;2023-07-22T04:50:27;97351.63;;;18.63
80537;BMP280;69867;47.074;15.404;2023-07-22T04:52:53;97343.84;;;19.75
80537;BMP280;69867;47.074;15.404;2023-07-22T04:55:19;97342.00;;;20.17
80537;BMP280;69867;47.074;15.404;2023-07-22T04:57:44;97351.00;;;19.73
80537;BMP280;69867;47.074;15.404;2023-07-22T05:00:10;97354.94;;;19.80
80537;BMP280;69867;47.074;15.404;2023-07-22T05:02:35;97345.59;;;19.89
80537;BMP280;69867;47.074;15.404;2023-07-22T05:05:01;97347.59;;;19.86
80537;BMP280;69867;47.074;15.404;2023-07-22T05:07:26;97352.38;;;19.93
80537;BMP280;69867;47.074;15.404;2023-07-22T05:09:51;97360.13;;;19.82
80537;BMP280;69867;47.074;15.404;2023-07-22T05:12:17;97357.19;;;19.87
80537;BMP280;69867;47.074;15.404;2023-07-22T05:14:44;97355.91;;;19.51
80537;BMP280;69867;47.074;15.404;2023-07-22T05:17:09;97355.72;;;19.26
80537;BMP280;69867;47.074;15.404;2023-07-22T05:19:35;97354.69;;;19.28
80537;BMP280;69867;47.074;15.404;2023-07-22T05:22:00;97366.16;;;19.13
80537;BMP280;69867;47.074;15.404;2023-07-22T05:24:25;97370.31;;;19.17
80537;BMP280;69867;47.074;15.404;2023-07-22T05:26:51;97367.09;;;19.26
80537;BMP280;69867;47.074;15.404;2023-07-22T05:29:16;97369.16;;;19.35
80537;BMP280;69867;47.074;15.404;2023-07-22T05:31:42;97371.59;;;19.38
80537;BMP280;69867;47.074;15.404;2023-07-22T05:34:07;97373.03;;;19.44
80537;BMP280;69867;47.074;15.404;2023-07-22T05:36:33;97376.13;;;19.36
80537;BMP280;69867;47.074;15.404;2023-07-22T05:38:58;97378.94;;;19.47
80537;BMP280;69867;47.074;15.404;2023-07-22T05:41:23;97381.06;;;19.57
80537;BMP280;69867;47.074;15.404;2023-07-22T05:43:49;97377.59;;;19.56
80537;BMP280;69867;47.074;15.404;2023-07-22T05:46:14;97379.00;;;19.62
80537;BMP280;69867;47.074;15.404;2023-07-22T05:48:39;97382.97;;;19.55
80537;BMP280;69867;47.074;15.404;2023-07-22T05:51:05;97385.75;;;19.52
80537;BMP280;69867;47.074;15.404;2023-07-22T05:53:32;97381.63;;;19.62
80537;BMP280;69867;47.074;15.404;2023-07-22T05:55:58;97381.91;;;19.57
80537;BMP280;69867;47.074;15.404;2023-07-22T05:58:23;97388.69;;;19.61
80537;BMP280;69867;47.074;15.404;2023-07-22T06:00:48;97386.81;;;19.63
80537;BMP280;69867;47.074;15.404;2023-07-22T06:03:14;97391.03;;;19.66
80537;BMP280;69867;47.074;15.404;2023-07-22T06:05:39;97379.84;;;19.62
80537;BMP280;69867;47.074;15.404;2023-07-22T06:08:05;97386.63;;;19.66
80537;BMP280;69867;47.074;15.404;2023-07-22T06:10:31;97383.13;;;19.66
80537;BMP280;69867;47.074;15.404;2023-07-22T06:12:57;97388.41;;;19.66
80537;BMP280;69867;47.074;15.404;2023-07-22T06:15:22;97387.84;;;19.61
80537;BMP280;69867;47.074;15.404;2023-07-22T06:17:48;97392.75;;;19.53
80537;BMP280;69867;47.074;15.404;2023-07-22T06:20:13;97384.59;;;19.41
80537;BMP280;69867;47.074;15.404;2023-07-22T06:22:38;97397.06;;;19.54
80537;BMP280;69867;47.074;15.404;2023-07-22T06:25:05;97400.16;;;19.74
80537;BMP280;69867;47.074;15.404;2023-07-22T06:27:30;97397.50;;;19.89
80537;BMP280;69867;47.074;15.404;2023-07-22T06:29:55;97399.66;;;19.82
80537;BMP280;69867;47.074;15.404;2023-07-22T06:32:21;97400.03;;;19.90
80537;BMP280;69867;47.074;15.404;2023-07-22T06:34:46;97403.81;;;19.86
80537;BMP280;69867;47.074;15.404;2023-07-22T06:37:11;97408.97;;;19.88
80537;BMP280;69867;47.074;15.404;2023-07-22T06:39:37;97411.09;;;20.09
80537;BMP280;69867;47.074;15.404;2023-07-22T06:42:02;97418.47;;;20.04
80537;BMP280;69867;47.074;15.404;2023-07-22T06:44:28;97416.78;;;20.30
80537;BMP280;69867;47.074;15.404;2023-07-22T06:46:53;97414.41;;;20.40
80537;BMP280;69867;47.074;15.404;2023-07-22T06:49:19;97421.81;;;20.21
80537;BMP280;69867;47.074;15.404;2023-07-22T06:51:44;97437.09;;;20.16
80537;BMP280;69867;47.074;15.404;2023-07-22T06:54:09;97424.66;;;20.44
80537;BMP280;69867;47.074;15.404;2023-07-22T06:56:34;97431.84;;;20.42
80537;BMP280;69867;47.074;15.404;2023-07-22T06:59:00;97440.00;;;20.52
80537;BMP280;69867;47.074;15.404;2023-07-22T07:01:25;97441.31;;;20.99
80537;BMP280;69867;47.074;15.404;2023-07-22T07:03:51;97429.16;;;21.22
80537;BMP280;69867;47.074;15.404;2023-07-22T07:06:16;97427.72;;;21.43
80537;BMP280;69867;47.074;15.404;2023-07-22T07:08:41;97427.72;;;21.43
80537;BMP280;69867;47.074;15.404;2023-07-22T07:11:07;97435.09;;;21.76
80537;BMP280;69867;47.074;15.404;2023-07-22T07:13:32;97441.16;;;22.02
80537;BMP280;69867;47.074;15.404;2023-07-22T07:16:24;97443.72;;;22.03
80537;BMP280;69867;47.074;15.404;2023-07-22T07:18:51;97437.88;;;22.24
80537;BMP280;69867;47.074;15.404;2023-07-22T07:21:17;97454.63;;;22.48
80537;BMP280;69867;47.074;15.404;2023-07-22T07:23:42;97448.41;;;22.37
80537;BMP280;69867;47.074;15.404;2023-07-22T07:26:08;97448.41;;;22.37
80537;BMP280;69867;47.074;15.404;2023-07-22T07:28:33;97440.97;;;22.89
80537;BMP280;69867;47.074;15.404;2023-07-22T07:30:58;97450.41;;;23.05
80537;BMP280;69867;47.074;15.404;2023-07-22T07:33:24;97450.41;;;23.05
80537;BMP280;69867;47.074;15.404;2023-07-22T07:35:49;97450.16;;;23.54
80537;BMP280;69867;47.074;15.404;2023-07-22T07:38:15;97444.91;;;23.76
80537;BMP280;69867;47.074;15.404;2023-07-22T07:40:40;97448.03;;;24.04
80537;BMP280;69867;47.074;15.404;2023-07-22T07:43:05;97451.25;;;24.18
80537;BMP280;69867;47.074;15.404;2023-07-22T07:45:31;97450.06;;;24.11
80537;BMP280;69867;47.074;15.404;2023-07-22T07:47:56;97448.47;;;24.42
80537;BMP280;69867;47.074;15.404;2023-07-22T07:50:21;97449.78;;;24.25
80537;BMP280;69867;47.074;15.404;2023-07-22T07:52:47;97451.34;;;24.50
80537;BMP280;69867;47.074;15.404;2023-07-22T07:55:12;97451.97;;;24.43
80537;BMP280;69867;47.074;15.404;2023-07-22T07:57:38;97452.25;;;24.61
80537;BMP280;69867;47.074;15.404;2023-07-22T08:00:03;97461.88;;;24.41
80537;BMP280;69867;47.074;15.404;2023-07-22T08:02:29;97461.53;;;24.12
80537;BMP280;69867;47.074;15.404;2023-07-22T08:04:54;97453.94;;;24.07
80537;BMP280;69867;47.074;15.404;2023-07-22T08:07:20;97455.25;;;24.02
80537;BMP280;69867;47.074;15.404;2023-07-22T08:09:47;97455.63;;;24.08
80537;BMP280;69867;47.074;15.404;2023-07-22T08:12:12;97455.22;;;24.24
80537;BMP280;69867;47.074;15.404;2023-07-22T08:14:37;97455.25;;;24.35
80537;BMP280;69867;47.074;15.404;2023-07-22T08:17:03;97454.28;;;24.14
80537;BMP280;69867;47.074;15.404;2023-07-22T08:19:28;97456.81;;;24.15
80537;BMP280;69867;47.074;15.404;2023-07-22T08:21:54;97455.97;;;24.37
80537;BMP280;69867;47.074;15.404;2023-07-22T08:24:19;97453.69;;;24.33
80537;BMP280;69867;47.074;15.404;2023-07-22T08:26:44;97455.44;;;24.54
80537;BMP280;69867;47.074;15.404;2023-07-22T08:29:09;97460.00;;;24.96
80537;BMP280;69867;47.074;15.404;2023-07-22T08:31:35;97468.22;;;25.45
80537;BMP280;69867;47.074;15.404;2023-07-22T08:34:00;97461.53;;;25.72
80537;BMP280;69867;47.074;15.404;2023-07-22T08:36:25;97456.56;;;25.88
80537;BMP280;69867;47.074;15.404;2023-07-22T08:38:51;97449.78;;;26.05
80537;BMP280;69867;47.074;15.404;2023-07-22T08:41:16;97459.03;;;26.51
80537;BMP280;69867;47.074;15.404;2023-07-22T08:43:45;97456.94;;;26.54
80537;BMP280;69867;47.074;15.404;2023-07-22T08:46:12;97451.31;;;26.48
80537;BMP280;69867;47.074;15.404;2023-07-22T08:48:41;97453.16;;;26.66
80537;BMP280;69867;47.074;15.404;2023-07-22T08:51:10;97447.41;;;26.71
80537;BMP280;69867;47.074;15.404;2023-07-22T08:53:38;97446.13;;;26.75
80537;BMP280;69867;47.074;15.404;2023-07-22T08:56:03;97440.28;;;27.00
80537;BMP280;69867;47.074;15.404;2023-07-22T08:58:29;97444.47;;;27.22
80537;BMP280;69867;47.074;15.404;2023-07-22T09:00:56;97445.16;;;27.15
80537;BMP280;69867;47.074;15.404;2023-07-22T09:03:21;97443.31;;;27.44
80537;BMP280;69867;47.074;15.404;2023-07-22T09:05:47;97451.44;;;27.52
80537;BMP280;69867;47.074;15.404;2023-07-22T09:08:13;97453.72;;;27.47
80537;BMP280;69867;47.074;15.404;2023-07-22T09:10:39;97458.88;;;27.68
80537;BMP280;69867;47.074;15.404;2023-07-22T09:13:05;97460.16;;;27.54
80537;BMP280;69867;47.074;15.404;2023-07-22T09:15:35;97457.78;;;27.41
80537;BMP280;69867;47.074;15.404;2023-07-22T09:18:00;97464.91;;;27.70
80537;BMP280;69867;47.074;15.404;2023-07-22T09:20:26;97453.13;;;28.00
80537;BMP280;69867;47.074;15.404;2023-07-22T09:22:51;97464.47;;;27.75
80537;BMP280;69867;47.074;15.404;2023-07-22T09:25:23;97462.09;;;27.71
80537;BMP280;69867;47.074;15.404;2023-07-22T09:27:53;97454.41;;;27.96
80537;BMP280;69867;47.074;15.404;2023-07-22T09:30:25;97459.13;;;28.12
80537;BMP280;69867;47.074;15.404;2023-07-22T09:32:52;97449.53;;;28.19
80537;BMP280;69867;47.074;15.404;2023-07-22T09:35:18;97449.56;;;27.82
80537;BMP280;69867;47.074;15.404;2023-07-22T09:37:44;97455.59;;;27.84
80537;BMP280;69867;47.074;15.404;2023-07-22T09:40:20;97449.56;;;28.09
80537;BMP280;69867;47.074;15.404;2023-07-22T09:42:50;97441.66;;;28.17
80537;BMP280;69867;47.074;15.404;2023-07-22T09:45:17;97439.97;;;27.89
80537;BMP280;69867;47.074;15.404;2023-07-22T09:47:46;97442.50;;;27.90
80537;BMP280;69867;47.074;15.404;2023-07-22T09:50:17;97444.28;;;27.53
80537;BMP280;69867;47.074;15.404;2023-07-22T09:52:47;97448.66;;;27.44
80537;BMP280;69867;47.074;15.404;2023-07-22T09:55:18;97455.41;;;27.19
80537;BMP280;69867;47.074;15.404;2023-07-22T09:57:46;97448.25;;;27.10
80537;BMP280;69867;47.074;15.404;2023-07-22T10:00:13;97448.97;;;27.02
80537;BMP280;69867;47.074;15.404;2023-07-22T10:02:40;97446.72;;;27.17
80537;BMP280;69867;47.074;15.404;2023-07-22T10:05:06;97443.63;;;27.22
80537;BMP280;69867;47.074;15.404;2023-07-22T10:07:33;97437.16;;;27.24
80537;BMP280;69867;47.074;15.404;2023-07-22T10:10:01;97445.16;;;27.24
80537;BMP280;69867;47.074;15.404;2023-07-22T10:12:27;97430.84;;;27.35
80537;BMP280;69867;47.074;15.404;2023-07-22T10:14:53;97431.13;;;27.32
80537;BMP280;69867;47.074;15.404;2023-07-22T10:17:19;97436.75;;;27.09
80537;BMP280;69867;47.074;15.404;2023-07-22T10:19:44;97431.66;;;27.45
80537;BMP280;69867;47.074;15.404;2023-07-22T10:22:11;97424.09;;;27.21
80537;BMP280;69867;47.074;15.404;2023-07-22T10:24:39;97428.88;;;27.27
80537;BMP280;69867;47.074;15.404;2023-07-22T10:27:04;97423.94;;;27.42
80537;BMP280;69867;47.074;15.404;2023-07-22T10:29:31;97420.63;;;27.77
80537;BMP280;69867;47.074;15.404;2023-07-22T10:31:57;97424.53;;;28.10
80537;BMP280;69867;47.074;15.404;2023-07-22T10:34:26;97428.06;;;28.38
80537;BMP280;69867;47.074;15.404;2023-07-22T10:36:51;97423.94;;;28.16
80537;BMP280;69867;47.074;15.404;2023-07-22T10:39:27;97427.59;;;28.15
80537;BMP280;69867;47.074;15.404;2023-07-22T10:42:05;97417.06;;;28.14
80537;BMP280;69867;47.074;15.404;2023-07-22T10:44:40;97406.34;;;27.96
80537;BMP280;69867;47.074;15.404;2023-07-22T10:47:05;97408.31;;;27.94
80537;BMP280;69867;47.074;15.404;2023-07-22T10:49:48;97402.38;;;28.00
80537;BMP280;69867;47.074;15.404;2023-07-22T10:52:13;97407.41;;;28.03
80537;BMP280;69867;47.074;15.404;2023-07-22T10:54:39;97397.56;;;28.31
80537;BMP280;69867;47.074;15.404;2023-07-22T10:57:23;97400.91;;;28.78
80537;BMP280;69867;47.074;15.404;2023-07-22T10:59:52;97398.53;;;29.11
80537;BMP280;69867;47.074;15.404;2023-07-22T11:02:28;97395.81;;;29.54
80537;BMP280;69867;47.074;15.404;2023-07-22T11:04:57;97390.22;;;29.74
80537;BMP280;69867;47.074;15.404;2023-07-22T11:07:52;97397.78;;;29.78
80537;BMP280;69867;47.074;15.404;2023-07-22T11:10:28;97383.97;;;29.91
80537;BMP280;69867;47.074;15.404;2023-07-22T11:12:53;97384.88;;;29.74
80537;BMP280;69867;47.074;15.404;2023-07-22T11:15:18;97381.16;;;29.67
80537;BMP280;69867;47.074;15.404;2023-07-22T11:17:44;97384.88;;;29.22
80537;BMP280;69867;47.074;15.404;2023-07-22T11:20:09;97380.22;;;29.24
80537;BMP280;69867;47.074;15.404;2023-07-22T11:22:35;97384.78;;;29.06
80537;BMP280;69867;47.074;15.404;2023-07-22T11:25:04;97376.69;;;28.80
80537;BMP280;69867;47.074;15.404;2023-07-22T11:27:29;97381.59;;;28.84
80537;BMP280;69867;47.074;15.404;2023-07-22T11:29:57;97377.94;;;28.85
80537;BMP280;69867;47.074;15.404;2023-07-22T11:32:23;97379.13;;;28.73
80537;BMP280;69867;47.074;15.404;2023-07-22T11:34:51;97365.50;;;28.49
80537;BMP280;69867;47.074;15.404;2023-07-22T11:37:18;97365.13;;;28.44
80537;BMP280;69867;47.074;15.404;2023-07-22T11:39:43;97365.34;;;28.32
80537;BMP280;69867;47.074;15.404;2023-07-22T11:42:08;97367.22;;;28.22
80537;BMP280;69867;47.074;15.404;2023-07-22T11:44:34;97358.94;;;28.25
80537;BMP280;69867;47.074;15.404;2023-07-22T11:47:03;97354.38;;;28.35
80537;BMP280;69867;47.074;15.404;2023-07-22T11:54:32;97351.22;;;28.40
80537;BMP280;69867;47.074;15.404;2023-07-22T11:57:15;97341.31;;;28.68
80537;BMP280;69867;47.074;15.404;2023-07-22T11:59:47;97340.16;;;28.88
80537;BMP280;69867;47.074;15.404;2023-07-22T12:02:17;97344.50;;;28.54
80537;BMP280;69867;47.074;15.404;2023-07-22T12:04:43;97342.31;;;28.67
80537;BMP280;69867;47.074;15.404;2023-07-22T12:07:29;97333.66;;;28.55
80537;BMP280;69867;47.074;15.404;2023-07-22T12:09:57;97333.66;;;28.73
80537;BMP280;69867;47.074;15.404;2023-07-22T12:12:36;97325.44;;;28.66
80537;BMP280;69867;47.074;15.404;2023-07-22T12:15:09;97333.72;;;28.81
80537;BMP280;69867;47.074;15.404;2023-07-22T12:17:54;97339.63;;;28.67
80537;BMP280;69867;47.074;15.404;2023-07-22T12:20:23;97332.47;;;28.67
80537;BMP280;69867;47.074;15.404;2023-07-22T12:22:49;97339.72;;;28.75
80537;BMP280;69867;47.074;15.404;2023-07-22T12:25:16;97341.31;;;28.32
80537;BMP280;69867;47.074;15.404;2023-07-22T12:27:41;97348.03;;;28.36
80537;BMP280;69867;47.074;15.404;2023-07-22T12:30:07;97348.25;;;28.25
80537;BMP280;69867;47.074;15.404;2023-07-22T12:32:33;97345.81;;;28.50
80537;BMP280;69867;47.074;15.404;2023-07-22T12:34:58;97339.84;;;28.56
80537;BMP280;69867;47.074;15.404;2023-07-22T12:37:23;97337.63;;;28.33
80537;BMP280;69867;47.074;15.404;2023-07-22T12:39:49;97327.34;;;28.39
80537;BMP280;69867;47.074;15.404;2023-07-22T12:42:14;97325.28;;;28.68
80537;BMP280;69867;47.074;15.404;2023-07-22T12:44:39;97328.38;;;28.81
80537;BMP280;69867;47.074;15.404;2023-07-22T12:47:05;97328.31;;;28.73
80537;BMP280;69867;47.074;15.404;2023-07-22T12:49:30;97328.09;;;28.84
80537;BMP280;69867;47.074;15.404;2023-07-22T12:51:56;97320.22;;;28.83
80537;BMP280;69867;47.074;15.404;2023-07-22T12:54:21;97314.63;;;28.76
80537;BMP280;69867;47.074;15.404;2023-07-22T12:56:47;97306.47;;;28.78
80537;BMP280;69867;47.074;15.404;2023-07-22T12:59:12;97298.97;;;28.81
80537;BMP280;69867;47.074;15.404;2023-07-22T13:01:37;97281.91;;;28.82
80537;BMP280;69867;47.074;15.404;2023-07-22T13:04:03;97287.78;;;28.24
80537;BMP280;69867;47.074;15.404;2023-07-22T13:06:28;97287.16;;;28.30
80537;BMP280;69867;47.074;15.404;2023-07-22T13:08:53;97283.72;;;28.20
80537;BMP280;69867;47.074;15.404;2023-07-22T13:11:19;97279.59;;;28.08
80537;BMP280;69867;47.074;15.404;2023-07-22T13:13:44;97271.81;;;28.32
80537;BMP280;69867;47.074;15.404;2023-07-22T13:16:09;97265.50;;;28.33
80537;BMP280;69867;47.074;15.404;2023-07-22T13:18:34;97262.97;;;28.32
80537;BMP280;69867;47.074;15.404;2023-07-22T13:21:00;97270.53;;;28.36
80537;BMP280;69867;47.074;15.404;2023-07-22T13:23:25;97264.81;;;28.31
80537;BMP280;69867;47.074;15.404;2023-07-22T13:25:50;97274.31;;;27.98
80537;BMP280;69867;47.074;15.404;2023-07-22T13:28:16;97276.97;;;27.53
80537;BMP280;69867;47.074;15.404;2023-07-22T13:30:41;97269.22;;;26.76
80537;BMP280;69867;47.074;15.404;2023-07-22T13:33:06;97274.28;;;26.69
80537;BMP280;69867;47.074;15.404;2023-07-22T13:35:32;97274.13;;;26.71
80537;BMP280;69867;47.074;15.404;2023-07-22T13:37:57;97278.38;;;26.54
80537;BMP280;69867;47.074;15.404;2023-07-22T13:40:22;97283.97;;;26.32
80537;BMP280;69867;47.074;15.404;2023-07-22T13:42:48;97291.28;;;26.30
80537;BMP280;69867;47.074;15.404;2023-07-22T13:45:13;97285.66;;;26.13
80537;BMP280;69867;47.074;15.404;2023-07-22T13:47:38;97281.69;;;25.98
80537;BMP280;69867;47.074;15.404;2023-07-22T13:50:04;97285.88;;;25.81
80537;BMP280;69867;47.074;15.404;2023-07-22T13:52:30;97294.19;;;25.58
80537;BMP280;69867;47.074;15.404;2023-07-22T13:54:55;97288.69;;;25.40
80537;BMP280;69867;47.074;15.404;2023-07-22T13:57:20;97289.06;;;25.26